createdAt,value
2018-05-27T00:00:24.712Z,21.23
2018-05-27T00:01:24.626Z,21.22
2018-05-27T00:03:17.941Z,21.18
2018-05-27T00:04:17.856Z,21.18
2018-05-27T00:06:11.137Z,21.19
2018-05-27T00:07:11.116Z,21.16
2018-05-27T00:09:04.389Z,21.16
2018-05-27T00:10:04.304Z,21.16
2018-05-27T00:11:57.590Z,21.12
2018-05-27T00:12:57.530Z,21.12
2018-05-27T00:14:50.837Z,21.06
2018-05-27T00:15:50.755Z,21.00
2018-05-27T00:17:44.031Z,21.00
2018-05-27T00:18:43.977Z,21.00
2018-05-27T00:20:37.378Z,21.00
2018-05-27T00:21:37.276Z,20.97
2018-05-27T00:23:30.598Z,20.91
2018-05-27T00:24:30.504Z,20.86
2018-05-27T00:26:23.787Z,20.85
2018-05-27T00:27:23.738Z,20.86
2018-05-27T00:29:17.033Z,20.82
2018-05-27T00:30:16.953Z,20.67
2018-05-27T00:32:10.341Z,20.71
2018-05-27T00:33:10.179Z,20.74
2018-05-27T00:35:03.486Z,20.72
2018-05-27T00:36:03.404Z,20.67
2018-05-27T00:37:56.680Z,20.64
2018-05-27T00:38:56.621Z,20.54
2018-05-27T00:40:49.923Z,20.51
2018-05-27T00:41:49.852Z,20.53
2018-05-27T00:43:43.248Z,20.49
2018-05-27T00:44:43.074Z,20.53
2018-05-27T00:46:36.355Z,20.44
2018-05-27T00:47:36.294Z,20.54
2018-05-27T00:49:29.598Z,20.42
2018-05-27T00:50:29.519Z,20.40
2018-05-27T00:52:22.802Z,20.40
2018-05-27T00:53:22.742Z,20.37
2018-05-27T00:55:16.146Z,20.40
2018-05-27T00:56:15.966Z,20.34
2018-05-27T00:58:09.338Z,20.30
2018-05-27T00:59:09.278Z,20.34
2018-05-27T01:01:02.683Z,20.37
2018-05-27T01:02:02.502Z,20.26
2018-05-27T01:03:55.907Z,20.20
2018-05-27T01:04:55.726Z,20.20
2018-05-27T01:06:49.110Z,20.15
2018-05-27T01:07:48.949Z,20.16
2018-05-27T01:09:42.354Z,20.08
2018-05-27T01:10:42.171Z,20.12
2018-05-27T01:12:35.454Z,20.15
2018-05-27T01:13:35.395Z,20.11
2018-05-27T01:15:28.699Z,20.12
2018-05-27T01:16:28.619Z,19.98
2018-05-27T01:18:21.901Z,19.95
2018-05-27T01:19:21.843Z,19.95
2018-05-27T01:21:15.146Z,19.93
2018-05-27T01:22:15.065Z,19.92
2018-05-27T01:24:08.368Z,19.98
2018-05-27T01:25:08.288Z,19.93
2018-05-27T01:27:01.570Z,19.86
2018-05-27T01:28:01.511Z,19.83
2018-05-27T01:29:54.813Z,19.86
2018-05-27T01:30:54.732Z,19.74
2018-05-27T01:32:48.015Z,19.79
2018-05-27T01:33:47.954Z,19.83
2018-05-27T01:35:41.356Z,19.74
2018-05-27T01:36:41.277Z,19.82
2018-05-27T01:38:34.557Z,19.67
2018-05-27T01:39:34.498Z,19.65
2018-05-27T01:41:27.798Z,19.75
2018-05-27T01:42:27.719Z,19.67
2018-05-27T01:44:21.021Z,19.67
2018-05-27T01:45:20.940Z,19.63
2018-05-27T01:47:14.215Z,19.61
2018-05-27T01:48:14.156Z,19.57
2018-05-27T01:50:07.447Z,19.61
2018-05-27T01:51:07.367Z,19.55
2018-05-27T01:53:00.652Z,19.49
2018-05-27T01:54:00.591Z,19.47
2018-05-27T01:55:54.000Z,19.47
2018-05-27T01:56:53.813Z,19.42
2018-05-27T01:58:47.197Z,19.37
2018-05-27T01:59:47.039Z,19.37
2018-05-27T02:01:40.341Z,19.31
2018-05-27T02:02:40.256Z,19.34
2018-05-27T02:04:33.561Z,19.31
2018-05-27T02:05:33.478Z,19.28
2018-05-27T02:07:26.751Z,19.25
2018-05-27T02:08:26.692Z,19.25
2018-05-27T02:10:20.094Z,19.35
2018-05-27T02:11:19.914Z,19.27
2018-05-27T02:13:13.297Z,19.30
2018-05-27T02:14:13.134Z,19.34
2018-05-27T02:16:06.436Z,19.40
2018-05-27T02:17:06.356Z,19.27
2018-05-27T02:18:59.640Z,19.23
2018-05-27T02:19:59.580Z,19.24
2018-05-27T02:21:52.879Z,19.24
2018-05-27T02:22:52.797Z,19.19
2018-05-27T02:24:46.201Z,19.20
2018-05-27T02:25:46.020Z,19.23
2018-05-27T02:27:39.340Z,19.20
2018-05-27T02:28:39.279Z,19.13
2018-05-27T02:30:32.578Z,19.20
2018-05-27T02:31:32.504Z,19.10
2018-05-27T02:33:25.782Z,19.19
2018-05-27T02:34:25.721Z,19.07
2018-05-27T02:36:19.027Z,19.10
2018-05-27T02:37:18.940Z,19.10
2018-05-27T02:39:12.226Z,19.05
2018-05-27T02:40:12.166Z,19.12
2018-05-27T02:42:05.470Z,19.12
2018-05-27T02:43:05.389Z,19.12
2018-05-27T02:44:58.686Z,19.19
2018-05-27T02:45:58.609Z,19.19
2018-05-27T02:47:51.882Z,19.15
2018-05-27T02:48:51.828Z,19.06
2018-05-27T02:50:45.225Z,19.00
2018-05-27T02:51:45.043Z,18.97
2018-05-27T02:53:38.323Z,19.05
2018-05-27T02:54:38.263Z,19.05
2018-05-27T02:56:31.566Z,18.97
2018-05-27T02:57:31.483Z,18.99
2018-05-27T02:59:24.764Z,18.94
2018-05-27T03:00:24.705Z,18.91
2018-05-27T03:02:18.106Z,18.96
2018-05-27T03:03:17.926Z,18.91
2018-05-27T03:05:11.835Z,18.91
2018-05-27T03:06:11.147Z,18.84
2018-05-27T03:08:04.425Z,18.82
2018-05-27T03:09:04.360Z,18.78
2018-05-27T03:10:57.658Z,18.71
2018-05-27T03:11:57.579Z,18.72
2018-05-27T03:13:50.860Z,18.74
2018-05-27T03:14:50.799Z,18.69
2018-05-27T03:16:44.204Z,18.63
2018-05-27T03:17:44.019Z,18.78
2018-05-27T03:19:37.336Z,18.72
2018-05-27T03:20:37.276Z,18.56
2018-05-27T03:22:30.576Z,18.63
2018-05-27T03:23:30.496Z,18.72
2018-05-27T03:25:23.900Z,18.68
2018-05-27T03:26:23.719Z,18.57
2018-05-27T03:28:16.988Z,18.69
2018-05-27T03:29:16.929Z,18.57
2018-05-27T03:31:10.228Z,18.61
2018-05-27T03:32:10.147Z,18.60
2018-05-27T03:34:03.431Z,18.59
2018-05-27T03:35:03.369Z,18.60
2018-05-27T03:36:56.668Z,18.50
2018-05-27T03:37:56.588Z,18.47
2018-05-27T03:39:49.869Z,18.44
2018-05-27T03:40:49.810Z,18.47
2018-05-27T03:42:43.108Z,18.49
2018-05-27T03:43:43.027Z,18.47
2018-05-27T03:45:36.326Z,18.47
2018-05-27T03:46:36.246Z,18.53
2018-05-27T03:48:29.528Z,18.49
2018-05-27T03:49:29.466Z,18.47
2018-05-27T03:51:22.767Z,18.50
2018-05-27T03:52:22.689Z,18.45
2018-05-27T03:54:15.967Z,18.49
2018-05-27T03:55:15.905Z,18.44
2018-05-27T03:57:09.207Z,18.44
2018-05-27T03:58:09.126Z,18.47
2018-05-27T04:00:02.408Z,18.34
2018-05-27T04:01:02.347Z,18.32
2018-05-27T04:02:55.645Z,18.38
2018-05-27T04:03:55.566Z,18.42
2018-05-27T04:05:48.870Z,18.39
2018-05-27T04:06:48.794Z,18.39
2018-05-27T04:08:42.166Z,18.31
2018-05-27T04:09:42.001Z,18.21
2018-05-27T04:11:35.406Z,18.29
2018-05-27T04:12:35.283Z,18.20
2018-05-27T04:14:28.658Z,18.20
2018-05-27T04:15:28.494Z,18.20
2018-05-27T04:17:21.785Z,18.26
2018-05-27T04:18:21.704Z,18.31
2018-05-27T04:20:14.981Z,18.24
2018-05-27T04:21:14.922Z,18.20
2018-05-27T04:23:08.221Z,18.17
2018-05-27T04:24:08.145Z,18.27
2018-05-27T04:26:01.544Z,18.29
2018-05-27T04:27:01.361Z,18.26
2018-05-27T04:28:54.743Z,18.29
2018-05-27T04:29:54.578Z,18.34
2018-05-27T04:31:47.980Z,18.32
2018-05-27T04:32:47.796Z,18.29
2018-05-27T04:34:41.076Z,18.36
2018-05-27T04:35:41.015Z,18.39
2018-05-27T04:37:34.417Z,18.45
2018-05-27T04:38:34.225Z,18.42
2018-05-27T04:40:27.504Z,18.47
2018-05-27T04:41:27.444Z,18.45
2018-05-27T04:43:20.742Z,18.45
2018-05-27T04:44:20.663Z,18.57
2018-05-27T04:46:13.965Z,18.69
2018-05-27T04:47:13.880Z,18.66
2018-05-27T04:49:07.161Z,18.71
2018-05-27T04:50:07.100Z,18.78
2018-05-27T04:52:00.400Z,18.79
2018-05-27T04:53:00.321Z,18.82
2018-05-27T04:54:53.603Z,19.00
2018-05-27T04:55:53.542Z,18.96
2018-05-27T04:57:46.944Z,19.05
2018-05-27T04:58:46.753Z,19.09
2018-05-27T05:00:40.037Z,19.16
2018-05-27T05:01:39.977Z,19.10
2018-05-27T05:03:33.383Z,19.12
2018-05-27T05:04:33.273Z,19.15
2018-05-27T05:06:26.577Z,19.15
2018-05-27T05:07:26.497Z,19.24
2018-05-27T05:09:19.884Z,19.31
2018-05-27T05:10:19.720Z,19.31
2018-05-27T05:12:13.628Z,19.34
2018-05-27T05:13:12.942Z,19.32
2018-05-27T05:15:06.325Z,19.37
2018-05-27T05:16:06.165Z,19.43
2018-05-27T05:17:59.566Z,19.40
2018-05-27T05:18:59.377Z,19.49
2018-05-27T05:20:52.762Z,19.56
2018-05-27T05:21:52.598Z,19.56
2018-05-27T05:23:45.901Z,19.49
2018-05-27T05:24:45.821Z,19.57
2018-05-27T05:26:39.122Z,19.64
2018-05-27T05:27:39.062Z,19.68
2018-05-27T05:29:32.429Z,19.71
2018-05-27T05:30:32.265Z,19.71
2018-05-27T05:32:25.568Z,19.92
2018-05-27T05:33:25.487Z,19.87
2018-05-27T05:35:18.876Z,19.93
2018-05-27T05:36:18.730Z,19.97
2018-05-27T05:38:12.008Z,20.11
2018-05-27T05:39:11.926Z,20.05
2018-05-27T05:41:05.208Z,20.11
2018-05-27T05:42:05.149Z,20.15
2018-05-27T05:43:58.555Z,20.12
2018-05-27T05:44:58.373Z,20.05
2018-05-27T05:46:51.675Z,20.16
2018-05-27T05:47:51.599Z,20.12
2018-05-27T05:49:44.982Z,20.10
2018-05-27T05:50:44.824Z,20.08
2018-05-27T05:52:38.123Z,20.16
2018-05-27T05:53:38.044Z,20.25
2018-05-27T05:55:31.337Z,20.22
2018-05-27T05:56:31.276Z,20.29
2018-05-27T05:58:24.580Z,20.19
2018-05-27T05:59:24.505Z,20.20
2018-05-27T06:01:17.786Z,20.35
2018-05-27T06:02:17.729Z,20.46
2018-05-27T06:04:11.133Z,20.51
2018-05-27T06:05:10.950Z,20.51
2018-05-27T06:07:04.253Z,20.72
2018-05-27T06:08:04.175Z,20.74
2018-05-27T06:09:57.459Z,20.86
2018-05-27T06:10:57.401Z,20.86
2018-05-27T06:12:50.709Z,20.82
2018-05-27T06:13:50.629Z,20.72
2018-05-27T06:15:44.517Z,20.71
2018-05-27T06:16:43.856Z,20.82
2018-05-27T06:18:37.159Z,21.12
2018-05-27T06:19:37.095Z,21.52
2018-05-27T06:21:30.366Z,22.55
2018-05-27T06:22:30.309Z,22.92
2018-05-27T06:24:23.616Z,23.79
2018-05-27T06:25:23.537Z,24.00
2018-05-27T06:27:16.832Z,23.93
2018-05-27T06:28:16.762Z,23.94
2018-05-27T06:30:10.147Z,24.39
2018-05-27T06:31:09.990Z,24.52
2018-05-27T06:33:03.357Z,25.19
2018-05-27T06:34:03.283Z,24.63
2018-05-27T06:35:56.572Z,24.78
2018-05-27T06:36:56.518Z,24.61
2018-05-27T06:38:49.891Z,25.01
2018-05-27T06:39:49.759Z,25.51
2018-05-27T06:41:43.053Z,25.97
2018-05-27T06:42:43.001Z,26.16
2018-05-27T06:44:36.310Z,25.66
2018-05-27T06:45:36.238Z,25.97
2018-05-27T06:47:29.544Z,25.60
2018-05-27T06:48:29.472Z,25.48
2018-05-27T06:50:22.769Z,25.48
2018-05-27T06:51:22.714Z,25.56
2018-05-27T06:53:16.033Z,25.79
2018-05-27T06:54:15.957Z,25.76
2018-05-27T06:56:09.253Z,25.97
2018-05-27T06:57:09.201Z,26.09
2018-05-27T06:59:02.515Z,26.03
2018-05-27T07:00:02.444Z,25.89
2018-05-27T07:01:57.837Z,26.06
2018-05-27T07:02:57.678Z,25.99
2018-05-27T07:04:51.048Z,26.19
2018-05-27T07:05:50.922Z,25.79
2018-05-27T07:07:44.229Z,25.67
2018-05-27T07:08:44.158Z,25.39
2018-05-27T07:10:37.459Z,26.35
2018-05-27T07:11:37.463Z,26.72
2018-05-27T07:13:30.723Z,26.22
2018-05-27T07:14:30.648Z,26.26
2018-05-27T07:16:23.943Z,26.64
2018-05-27T07:17:23.892Z,26.61
2018-05-27T07:19:17.206Z,25.89
2018-05-27T07:20:17.136Z,25.37
2018-05-27T07:22:10.434Z,25.09
2018-05-27T07:23:10.386Z,25.45
2018-05-27T07:25:03.688Z,25.84
2018-05-27T07:26:03.617Z,25.82
2018-05-27T07:27:56.927Z,26.68
2018-05-27T07:28:56.857Z,26.93
2018-05-27T07:30:50.248Z,26.06
2018-05-27T07:31:50.090Z,25.70
2018-05-27T07:33:43.416Z,26.06
2018-05-27T07:34:43.345Z,26.16
2018-05-27T07:36:36.640Z,26.68
2018-05-27T07:37:36.580Z,26.44
2018-05-27T07:39:29.890Z,25.93
2018-05-27T07:40:29.814Z,25.45
2018-05-27T07:42:23.102Z,25.49
2018-05-27T07:43:23.043Z,25.59
2018-05-27T07:45:16.468Z,26.24
2018-05-27T07:46:16.285Z,26.59
2018-05-27T07:48:09.700Z,26.89
2018-05-27T07:49:09.521Z,26.93
2018-05-27T07:51:02.806Z,26.26
2018-05-27T07:52:02.757Z,26.04
2018-05-27T07:53:56.072Z,25.96
2018-05-27T07:54:55.994Z,26.22
2018-05-27T07:56:49.340Z,26.22
2018-05-27T07:57:49.290Z,26.38
2018-05-27T07:59:42.600Z,26.03
2018-05-27T08:00:42.531Z,26.12
2018-05-27T08:02:35.812Z,26.24
2018-05-27T08:03:35.760Z,26.20
2018-05-27T08:05:29.067Z,25.82
2018-05-27T08:06:28.995Z,25.70
2018-05-27T08:08:22.302Z,25.75
2018-05-27T08:09:22.231Z,25.91
2018-05-27T08:11:15.518Z,25.49
2018-05-27T08:12:15.465Z,25.79
2018-05-27T08:14:08.773Z,26.54
2018-05-27T08:15:08.700Z,26.63
2018-05-27T08:17:01.997Z,26.82
2018-05-27T08:18:01.942Z,26.74
2018-05-27T08:19:55.305Z,26.84
2018-05-27T08:20:55.179Z,26.91
2018-05-27T08:22:49.073Z,27.11
2018-05-27T08:23:48.415Z,26.82
2018-05-27T08:25:41.719Z,26.64
2018-05-27T08:26:41.647Z,26.61
2018-05-27T08:28:34.953Z,26.06
2018-05-27T08:29:34.882Z,26.00
2018-05-27T08:31:28.167Z,25.78
2018-05-27T08:32:28.120Z,25.89
2018-05-27T08:34:21.426Z,26.56
2018-05-27T08:35:21.353Z,27.01
2018-05-27T08:37:14.641Z,27.09
2018-05-27T08:38:14.590Z,26.99
2018-05-27T08:40:07.903Z,27.69
2018-05-27T08:41:07.825Z,27.55
2018-05-27T08:43:01.115Z,27.66
2018-05-27T08:44:01.062Z,27.89
2018-05-27T08:45:54.475Z,27.80
2018-05-27T08:46:54.296Z,28.05
2018-05-27T08:48:47.604Z,27.76
2018-05-27T08:49:47.539Z,27.72
2018-05-27T08:51:40.820Z,27.86
2018-05-27T08:52:40.768Z,27.89
2018-05-27T08:54:34.073Z,28.61
2018-05-27T08:55:34.003Z,28.65
2018-05-27T08:57:27.341Z,28.65
2018-05-27T08:58:27.288Z,28.41
2018-05-27T09:00:20.710Z,28.20
2018-05-27T09:01:20.593Z,28.24
2018-05-27T09:03:13.919Z,28.68
2018-05-27T09:04:13.762Z,28.97
2018-05-27T09:06:07.069Z,29.43
2018-05-27T09:07:06.997Z,29.35
2018-05-27T09:09:00.422Z,28.01
2018-05-27T09:10:00.236Z,28.36
2018-05-27T09:11:53.635Z,28.24
2018-05-27T09:12:53.479Z,28.63
2018-05-27T09:14:46.892Z,28.78
2018-05-27T09:15:46.725Z,28.85
2018-05-27T09:17:40.016Z,29.51
2018-05-27T09:18:39.967Z,29.43
2018-05-27T09:20:33.371Z,29.17
2018-05-27T09:21:33.293Z,28.92
2018-05-27T09:23:26.605Z,28.42
2018-05-27T09:24:26.541Z,29.21
2018-05-27T09:26:19.859Z,29.43
2018-05-27T09:27:19.791Z,29.85
2018-05-27T09:29:13.110Z,29.32
2018-05-27T09:30:13.040Z,28.70
2018-05-27T09:32:06.354Z,28.53
2018-05-27T09:33:06.289Z,28.51
2018-05-27T09:34:59.705Z,29.24
2018-05-27T09:35:59.543Z,29.66
2018-05-27T09:37:52.840Z,29.84
2018-05-27T09:38:52.787Z,29.84
2018-05-27T09:40:46.106Z,29.30
2018-05-27T09:41:46.036Z,29.20
2018-05-27T09:43:39.343Z,29.97
2018-05-27T09:44:39.291Z,30.42
2018-05-27T09:46:32.612Z,30.34
2018-05-27T09:47:32.542Z,29.88
2018-05-27T09:49:25.862Z,29.33
2018-05-27T09:50:25.793Z,29.26
2018-05-27T09:52:19.095Z,29.40
2018-05-27T09:53:19.045Z,29.60
2018-05-27T09:55:12.411Z,30.31
2018-05-27T09:56:12.295Z,30.03
2018-05-27T09:58:05.663Z,29.95
2018-05-27T09:59:05.535Z,30.14
2018-05-27T10:00:58.854Z,30.89
2018-05-27T10:01:58.784Z,30.75
2018-05-27T10:03:52.087Z,31.03
2018-05-27T10:04:52.055Z,30.62
2018-05-27T10:06:45.366Z,31.06
2018-05-27T10:07:45.297Z,31.68
2018-05-27T10:09:38.607Z,31.91
2018-05-27T10:10:38.547Z,31.62
2018-05-27T10:12:31.833Z,30.78
2018-05-27T10:13:31.786Z,31.03
2018-05-27T10:15:25.105Z,32.03
2018-05-27T10:16:25.037Z,32.17
2018-05-27T10:18:18.326Z,31.77
2018-05-27T10:19:18.277Z,31.37
2018-05-27T10:21:11.591Z,31.04
2018-05-27T10:22:11.527Z,31.13
2018-05-27T10:24:04.822Z,30.78
2018-05-27T10:25:04.773Z,29.85
2018-05-27T10:26:58.085Z,29.10
2018-05-27T10:27:58.024Z,29.23
2018-05-27T10:29:51.363Z,29.98
2018-05-27T10:30:51.289Z,29.98
2018-05-27T10:32:44.627Z,30.04
2018-05-27T10:33:44.535Z,30.25
2018-05-27T10:35:37.860Z,29.95
2018-05-27T10:36:37.788Z,29.84
2018-05-27T10:38:31.091Z,29.55
2018-05-27T10:39:31.040Z,29.82
2018-05-27T10:41:24.363Z,29.03
2018-05-27T10:42:24.293Z,28.95
2018-05-27T10:44:17.603Z,29.76
2018-05-27T10:45:17.549Z,29.95
2018-05-27T10:47:10.877Z,29.89
2018-05-27T10:48:10.808Z,29.54
2018-05-27T10:50:04.133Z,29.20
2018-05-27T10:51:04.064Z,29.24
2018-05-27T10:52:57.366Z,29.95
2018-05-27T10:53:57.316Z,30.02
2018-05-27T10:55:50.734Z,30.10
2018-05-27T10:56:50.569Z,29.85
2018-05-27T10:58:43.870Z,29.11
2018-05-27T10:59:43.819Z,29.32
2018-05-27T11:01:37.173Z,29.94
2018-05-27T11:02:37.070Z,30.00
2018-05-27T11:04:30.373Z,30.57
2018-05-27T11:05:30.957Z,30.78
2018-05-27T11:07:23.645Z,30.18
2018-05-27T11:08:23.574Z,30.37
2018-05-27T11:10:16.900Z,30.14
2018-05-27T11:11:16.828Z,29.69
2018-05-27T11:13:10.129Z,29.23
2018-05-27T11:14:10.080Z,29.20
2018-05-27T11:16:03.404Z,29.05
2018-05-27T11:17:03.336Z,28.85
2018-05-27T11:18:56.734Z,29.24
2018-05-27T11:19:56.588Z,29.11
2018-05-27T11:21:50.006Z,28.60
2018-05-27T11:22:49.840Z,28.43
2018-05-27T11:24:44.141Z,28.90
2018-05-27T11:25:44.090Z,28.97
2018-05-27T11:27:37.403Z,29.40
2018-05-27T11:28:37.334Z,29.21
2018-05-27T11:30:30.653Z,28.39
2018-05-27T11:31:30.585Z,28.41
2018-05-27T11:33:23.981Z,28.85
2018-05-27T11:34:23.832Z,29.01
2018-05-27T11:36:17.155Z,28.73
2018-05-27T11:37:17.088Z,28.75
2018-05-27T11:39:10.482Z,29.06
2018-05-27T11:40:10.335Z,28.79
2018-05-27T11:42:03.751Z,28.90
2018-05-27T11:43:03.589Z,28.82
2018-05-27T11:44:56.991Z,28.63
2018-05-27T11:45:56.834Z,28.57
2018-05-27T11:47:50.155Z,28.60
2018-05-27T11:48:50.086Z,28.63
2018-05-27T11:50:43.406Z,28.61
2018-05-27T11:51:43.337Z,28.63
2018-05-27T11:53:36.639Z,28.41
2018-05-27T11:54:36.590Z,28.51
2018-05-27T11:56:29.904Z,28.57
2018-05-27T11:57:29.834Z,28.64
2018-05-27T11:59:23.231Z,28.98
2018-05-27T12:00:23.081Z,29.18
2018-05-27T12:02:16.396Z,29.03
2018-05-27T12:03:16.327Z,29.13
2018-05-27T12:05:09.722Z,29.21
2018-05-27T12:06:09.576Z,29.21
2018-05-27T12:08:02.883Z,29.11
2018-05-27T12:09:02.865Z,29.15
2018-05-27T12:10:56.231Z,28.91
2018-05-27T12:11:56.060Z,28.92
2018-05-27T12:13:49.363Z,28.85
2018-05-27T12:14:49.308Z,28.90
2018-05-27T12:16:42.627Z,29.05
2018-05-27T12:17:42.554Z,29.30
2018-05-27T12:19:35.852Z,28.97
2018-05-27T12:20:35.800Z,28.95
2018-05-27T12:22:29.117Z,28.98
2018-05-27T12:23:29.047Z,28.91
2018-05-27T12:25:22.342Z,28.80
2018-05-27T12:26:22.292Z,28.85
2018-05-27T12:28:15.708Z,28.90
2018-05-27T12:29:15.540Z,28.88
2018-05-27T12:31:08.857Z,28.54
2018-05-27T12:32:08.785Z,28.64
2018-05-27T12:34:02.085Z,28.78
2018-05-27T12:35:02.034Z,28.88
2018-05-27T12:36:55.378Z,29.03
2018-05-27T12:37:55.293Z,28.91
2018-05-27T12:39:48.580Z,28.91
2018-05-27T12:40:48.525Z,28.90
2018-05-27T12:42:41.904Z,29.21
2018-05-27T12:43:41.770Z,29.32
2018-05-27T12:45:35.093Z,29.13
2018-05-27T12:46:35.016Z,29.06
2018-05-27T12:48:28.332Z,28.91
2018-05-27T12:49:28.261Z,28.88
2018-05-27T12:51:21.577Z,29.05
2018-05-27T12:52:21.507Z,29.05
2018-05-27T12:54:14.808Z,29.08
2018-05-27T12:55:14.753Z,29.17
2018-05-27T12:57:08.071Z,28.78
2018-05-27T12:58:07.999Z,28.80
2018-05-27T13:00:01.339Z,28.94
2018-05-27T13:01:01.293Z,29.14
2018-05-27T13:02:54.703Z,29.38
2018-05-27T13:03:54.535Z,29.50
2018-05-27T13:05:47.948Z,29.61
2018-05-27T13:06:47.782Z,29.55
2018-05-27T13:08:41.701Z,29.42
2018-05-27T13:09:41.019Z,29.66
2018-05-27T13:11:34.337Z,29.55
2018-05-27T13:12:34.266Z,29.63
2018-05-27T13:14:27.556Z,29.72
2018-05-27T13:15:27.503Z,29.48
2018-05-27T13:17:20.804Z,29.58
2018-05-27T13:18:20.733Z,29.38
2018-05-27T13:20:14.130Z,29.45
2018-05-27T13:21:13.973Z,29.29
2018-05-27T13:23:07.392Z,29.23
2018-05-27T13:24:07.289Z,29.18
2018-05-27T13:26:00.609Z,29.15
2018-05-27T13:27:00.530Z,29.02
2018-05-27T13:28:53.817Z,28.94
2018-05-27T13:29:53.764Z,28.94
2018-05-27T13:31:47.072Z,29.05
2018-05-27T13:32:47.002Z,28.94
2018-05-27T13:34:40.291Z,28.75
2018-05-27T13:35:40.239Z,28.75
2018-05-27T13:37:33.547Z,28.97
2018-05-27T13:38:33.477Z,29.01
2018-05-27T13:40:27.372Z,28.76
2018-05-27T13:41:26.713Z,28.72
2018-05-27T13:43:20.126Z,28.63
2018-05-27T13:44:19.950Z,28.64
2018-05-27T13:46:13.272Z,28.67
2018-05-27T13:47:13.203Z,28.67
2018-05-27T13:49:06.473Z,28.68
2018-05-27T13:50:06.428Z,28.75
2018-05-27T13:51:59.728Z,28.76
2018-05-27T13:52:59.656Z,28.75
2018-05-27T13:54:52.944Z,28.60
2018-05-27T13:55:52.891Z,28.55
2018-05-27T13:57:46.198Z,28.55
2018-05-27T13:58:46.128Z,28.57
2018-05-27T14:00:39.415Z,28.58
2018-05-27T14:01:39.360Z,28.54
2018-05-27T14:03:32.779Z,28.63
2018-05-27T14:04:32.600Z,28.58
2018-05-27T14:06:25.917Z,28.57
2018-05-27T14:07:25.839Z,28.48
2018-05-27T14:09:19.122Z,28.53
2018-05-27T14:10:19.123Z,28.38
2018-05-27T14:12:12.379Z,28.28
2018-05-27T14:13:12.308Z,28.28
2018-05-27T14:15:05.700Z,28.30
2018-05-27T14:16:05.549Z,28.36
2018-05-27T14:17:58.848Z,28.45
2018-05-27T14:18:58.778Z,28.54
2018-05-27T14:20:52.172Z,28.24
2018-05-27T14:21:52.014Z,28.11
2018-05-27T14:23:45.365Z,28.24
2018-05-27T14:24:45.284Z,28.33
2018-05-27T14:26:38.597Z,28.39
2018-05-27T14:27:38.520Z,28.33
2018-05-27T14:29:31.915Z,28.36
2018-05-27T14:30:31.755Z,28.38
2018-05-27T14:32:25.060Z,28.48
2018-05-27T14:33:24.988Z,28.43
2018-05-27T14:35:18.274Z,28.46
2018-05-27T14:36:18.223Z,28.46
2018-05-27T14:38:11.538Z,28.43
2018-05-27T14:39:11.458Z,28.45
2018-05-27T14:41:04.854Z,28.45
2018-05-27T14:42:04.692Z,28.43
2018-05-27T14:43:57.996Z,28.43
2018-05-27T14:44:57.924Z,28.36
2018-05-27T14:46:51.230Z,28.41
2018-05-27T14:47:51.160Z,28.33
2018-05-27T14:49:44.554Z,28.46
2018-05-27T14:50:44.393Z,28.49
2018-05-27T14:52:37.716Z,28.39
2018-05-27T14:53:37.633Z,28.38
2018-05-27T14:55:31.766Z,28.45
2018-05-27T14:56:31.713Z,28.35
2018-05-27T14:58:25.017Z,28.36
2018-05-27T14:59:24.946Z,28.31
2018-05-27T15:01:18.234Z,28.08
2018-05-27T15:02:18.185Z,28.05
2018-05-27T15:04:11.543Z,28.05
2018-05-27T15:05:11.415Z,27.99
2018-05-27T15:07:04.724Z,28.03
2018-05-27T15:08:04.654Z,28.03
2018-05-27T15:09:57.950Z,28.23
2018-05-27T15:10:57.897Z,28.20
2018-05-27T15:12:51.309Z,28.09
2018-05-27T15:13:51.138Z,27.71
2018-05-27T15:15:44.420Z,27.24
2018-05-27T15:16:44.367Z,27.16
2018-05-27T15:18:37.772Z,26.72
2018-05-27T15:19:37.600Z,26.64
2018-05-27T15:21:30.887Z,25.82
2018-05-27T15:22:30.834Z,25.57
2018-05-27T15:24:24.147Z,25.48
2018-05-27T15:25:24.098Z,25.59
2018-05-27T15:27:17.489Z,25.57
2018-05-27T15:28:17.321Z,25.47
2018-05-27T15:30:10.610Z,25.52
2018-05-27T15:31:10.555Z,25.57
2018-05-27T15:33:03.859Z,25.62
2018-05-27T15:34:03.786Z,25.54
2018-05-27T15:35:57.072Z,25.04
2018-05-27T15:36:57.015Z,25.00
2018-05-27T15:38:50.317Z,25.00
2018-05-27T15:39:50.246Z,25.00
2018-05-27T15:41:43.527Z,25.02
2018-05-27T15:42:43.472Z,24.94
2018-05-27T15:44:36.883Z,24.93
2018-05-27T15:45:36.700Z,24.82
2018-05-27T15:47:30.002Z,24.69
2018-05-27T15:48:29.930Z,24.77
2018-05-27T15:50:23.340Z,24.66
2018-05-27T15:51:23.288Z,24.71
2018-05-27T15:53:16.597Z,24.78
2018-05-27T15:54:16.522Z,24.69
2018-05-27T15:56:09.813Z,24.69
2018-05-27T15:57:09.764Z,24.69
2018-05-27T15:59:03.077Z,24.49
2018-05-27T16:00:03.000Z,24.24
2018-05-27T16:01:56.288Z,24.26
2018-05-27T16:02:56.232Z,24.39
2018-05-27T16:04:49.549Z,24.42
2018-05-27T16:05:49.471Z,24.44
2018-05-27T16:07:42.772Z,24.58
2018-05-27T16:08:42.697Z,24.66
2018-05-27T16:10:35.979Z,24.63
2018-05-27T16:11:35.924Z,24.42
2018-05-27T16:13:29.224Z,24.48
2018-05-27T16:14:29.151Z,24.45
2018-05-27T16:16:22.434Z,24.49
2018-05-27T16:17:22.376Z,24.54
2018-05-27T16:19:15.786Z,24.45
2018-05-27T16:20:15.605Z,24.45
2018-05-27T16:22:08.884Z,24.42
2018-05-27T16:23:08.830Z,24.40
2018-05-27T16:25:02.238Z,24.49
2018-05-27T16:26:02.055Z,24.56
2018-05-27T16:27:55.357Z,24.48
2018-05-27T16:28:55.284Z,24.40
2018-05-27T16:30:48.673Z,24.39
2018-05-27T16:31:48.510Z,24.34
2018-05-27T16:33:41.811Z,24.40
2018-05-27T16:34:41.737Z,24.46
2018-05-27T16:36:35.026Z,24.44
2018-05-27T16:37:34.973Z,24.42
2018-05-27T16:39:28.272Z,24.49
2018-05-27T16:40:28.197Z,24.42
2018-05-27T16:42:21.595Z,23.96
2018-05-27T16:43:21.426Z,23.77
2018-05-27T16:45:14.728Z,23.72
2018-05-27T16:46:14.656Z,23.92
2018-05-27T16:48:07.965Z,23.93
2018-05-27T16:49:07.885Z,24.00
2018-05-27T16:51:01.277Z,24.11
2018-05-27T16:52:01.121Z,24.14
2018-05-27T16:53:54.430Z,24.08
2018-05-27T16:54:54.357Z,24.08
2018-05-27T16:56:47.677Z,23.82
2018-05-27T16:57:47.624Z,23.72
2018-05-27T16:59:40.936Z,23.84
2018-05-27T17:00:40.862Z,23.92
2018-05-27T17:02:34.153Z,23.94
2018-05-27T17:03:34.095Z,23.82
2018-05-27T17:05:27.406Z,23.79
2018-05-27T17:06:27.331Z,23.82
2018-05-27T17:08:20.640Z,23.87
2018-05-27T17:09:20.568Z,23.92
2018-05-27T17:11:13.854Z,23.85
2018-05-27T17:12:13.805Z,23.82
2018-05-27T17:14:07.168Z,23.94
2018-05-27T17:15:07.035Z,23.99
2018-05-27T17:17:00.329Z,23.87
2018-05-27T17:18:00.271Z,23.72
2018-05-27T17:19:53.592Z,23.70
2018-05-27T17:20:53.557Z,23.64
2018-05-27T17:22:47.797Z,23.59
2018-05-27T17:23:47.742Z,23.67
2018-05-27T17:25:41.050Z,23.82
2018-05-27T17:26:40.977Z,23.81
2018-05-27T17:28:34.297Z,23.85
2018-05-27T17:29:34.213Z,23.85
2018-05-27T17:31:27.501Z,23.84
2018-05-27T17:32:27.452Z,23.81
2018-05-27T17:34:20.855Z,23.90
2018-05-27T17:35:20.679Z,23.90
2018-05-27T17:37:13.967Z,24.03
2018-05-27T17:38:13.909Z,23.94
2018-05-27T17:40:07.224Z,23.92
2018-05-27T17:41:07.148Z,23.97
2018-05-27T17:43:00.439Z,23.97
2018-05-27T17:44:00.383Z,24.09
2018-05-27T17:45:53.795Z,24.12
2018-05-27T17:46:53.619Z,24.11
2018-05-27T17:48:46.930Z,24.14
2018-05-27T17:49:46.854Z,24.08
2018-05-27T17:51:40.145Z,24.04
2018-05-27T17:52:40.090Z,24.08
2018-05-27T17:54:33.401Z,24.02
2018-05-27T17:55:33.327Z,24.09
2018-05-27T17:57:26.623Z,23.96
2018-05-27T17:58:26.554Z,23.90
2018-05-27T18:00:19.963Z,23.77
2018-05-27T18:01:19.789Z,23.72
2018-05-27T18:03:13.089Z,23.84
2018-05-27T18:04:13.057Z,23.96
2018-05-27T18:06:06.336Z,24.19
2018-05-27T18:07:06.262Z,24.27
2018-05-27T18:08:59.571Z,24.42
2018-05-27T18:09:59.494Z,24.51
2018-05-27T18:11:52.785Z,24.21
2018-05-27T18:12:52.729Z,24.18
2018-05-27T18:14:46.140Z,24.14
2018-05-27T18:15:45.981Z,24.07
2018-05-27T18:17:39.336Z,23.84
2018-05-27T18:18:39.281Z,23.87
2018-05-27T18:20:32.597Z,23.96
2018-05-27T18:21:32.522Z,23.96
2018-05-27T18:23:25.813Z,23.93
2018-05-27T18:24:25.756Z,24.07
2018-05-27T18:26:19.064Z,24.11
2018-05-27T18:27:18.990Z,24.04
2018-05-27T18:29:12.299Z,24.11
2018-05-27T18:30:12.229Z,24.09
2018-05-27T18:32:05.514Z,24.00
2018-05-27T18:33:05.460Z,23.96
2018-05-27T18:34:58.772Z,23.89